Lancaster Airport

Airport
ICAO code: 
KLNS
Summary
ICAO Region: 
NAM
Territory: 
Location: 
Lancaster, Pennsylvania,
Coordinates: 
Aerial View: 
40° 7' 23.388" N, 76° 17' 28.878" W
Airport WX: 
Cumulonimbus
Metar
Observation
KLNS 020853Z AUTO 06003KT 10SM OVC050 07/04 A2989 RMK AO2 RAE25 SLP123 P0001 60002 T00670044 56028
Station
Lancaster, Lancaster Airport
Date/Time
2021-12-02 08:53:00
Wind direction
60°
Wind speed
03 kts
Lowest cloud amount
overcast
Temperature
6.7°C
Dew point
4.4°C
Humidity
85%
Weather condition
n/a

Description

Lancaster Airport is a public use airport located 7 km north of the central business district of Lancaster, a city in Lancaster County, Pennsylvania.

Climatology

Humid continental climate (Köppen climate classification Dfa) - characterized by four seasons: cold, windy, snowy winters, mild springs, hot, humid summers, and crisp and relatively short autumns. Precipitation reaches its lowest in January and February and peaks in summer and latter half of spring.

Runways

Designator Length Width Surface Rops
13/31 1250 30 ASP Yes/Yes
8/26 2113 46 ASP Yes/Yes
Airport map: 
Aerial View: 

SKYbrary Partners:

Safety knowledge contributed by: